createdAt,value
2022-09-13T00:00:41.717Z,3.30
2022-09-13T00:03:10.127Z,3.10
2022-09-13T00:05:38.289Z,3.93
2022-09-13T00:08:06.068Z,3.37
2022-09-13T00:10:35.476Z,3.47
2022-09-13T00:13:02.237Z,3.53
2022-09-13T00:15:28.843Z,4.03
2022-09-13T00:17:56.018Z,4.10
2022-09-13T00:20:22.719Z,4.10
2022-09-13T00:22:49.192Z,3.87
2022-09-13T00:25:15.701Z,4.40
2022-09-13T00:27:42.222Z,4.37
2022-09-13T00:30:09.484Z,4.47
2022-09-13T00:32:36.182Z,4.60
2022-09-13T00:35:04.698Z,4.47
2022-09-13T00:37:33.289Z,4.77
2022-09-13T00:40:00.657Z,5.30
2022-09-13T00:42:29.094Z,4.60
2022-09-13T00:45:02.804Z,5.20
2022-09-13T00:47:39.852Z,5.03
2022-09-13T00:50:14.569Z,5.53
2022-09-13T00:52:46.691Z,5.43
2022-09-13T00:55:31.192Z,6.20
2022-09-13T00:58:05.059Z,6.03
2022-09-13T01:00:31.874Z,6.20
2022-09-13T01:03:02.251Z,5.70
2022-09-13T01:05:36.114Z,6.17
2022-09-13T01:08:03.971Z,6.33
2022-09-13T01:10:31.813Z,5.73
2022-09-13T01:13:15.066Z,5.60
2022-09-13T01:15:41.725Z,6.43
2022-09-13T01:18:09.569Z,6.33
2022-09-13T01:21:21.206Z,6.00
2022-09-13T01:24:12.473Z,5.80
2022-09-13T01:26:57.113Z,6.30
2022-09-13T01:29:26.503Z,5.57
2022-09-13T01:31:58.764Z,6.47
2022-09-13T01:34:28.280Z,6.90
2022-09-13T01:37:00.240Z,7.10
2022-09-13T01:39:50.562Z,6.57
2022-09-13T01:42:27.088Z,6.70
2022-09-13T01:45:09.382Z,7.30
2022-09-13T01:47:52.353Z,7.30
2022-09-13T01:50:24.705Z,7.07
2022-09-13T01:52:57.175Z,7.37
2022-09-13T01:55:27.325Z,7.37
2022-09-13T01:58:06.809Z,7.37
2022-09-13T02:00:41.374Z,7.37
2022-09-13T02:03:14.753Z,6.70
2022-09-13T02:05:47.798Z,7.77
2022-09-13T02:08:21.761Z,7.27
2022-09-13T02:10:54.063Z,7.30
2022-09-13T02:13:25.804Z,7.67
2022-09-13T02:16:00.791Z,7.60
2022-09-13T02:18:36.466Z,7.70
2022-09-13T02:21:12.662Z,8.47
2022-09-13T02:23:47.260Z,7.37
2022-09-13T02:26:15.491Z,7.83
2022-09-13T02:28:48.600Z,7.73
2022-09-13T02:31:19.810Z,7.70
2022-09-13T02:33:54.536Z,7.90
2022-09-13T02:36:28.289Z,7.60
2022-09-13T02:39:02.508Z,8.50
2022-09-13T02:41:39.506Z,9.27
2022-09-13T02:44:19.814Z,8.53
2022-09-13T02:47:14.220Z,8.23
2022-09-13T02:49:52.800Z,8.73
2022-09-13T02:52:37.378Z,9.40
2022-09-13T02:55:18.931Z,9.33
2022-09-13T02:57:48.646Z,8.80
2022-09-13T03:00:15.280Z,9.90
2022-09-13T03:02:44.124Z,9.50
2022-09-13T03:05:11.008Z,10.60
2022-09-13T03:07:37.515Z,10.77
2022-09-13T03:10:15.187Z,10.37
2022-09-13T03:13:00.404Z,10.83
2022-09-13T03:16:06.605Z,11.03
2022-09-13T03:19:03.588Z,11.97
2022-09-13T03:21:58.043Z,10.83
2022-09-13T03:24:54.929Z,10.90
2022-09-13T03:27:49.675Z,10.90
2022-09-13T03:30:18.154Z,11.80
2022-09-13T03:33:00.394Z,11.67
2022-09-13T03:35:36.418Z,11.13
2022-09-13T03:38:14.685Z,11.53
2022-09-13T03:41:00.105Z,12.60
2022-09-13T03:43:41.680Z,12.87
2022-09-13T03:46:35.121Z,12.80
2022-09-13T03:49:06.705Z,13.43
2022-09-13T03:51:33.985Z,14.23
2022-09-13T03:54:04.852Z,14.93
2022-09-13T03:56:31.530Z,15.20
2022-09-13T03:58:58.496Z,16.17
2022-09-13T04:01:25.722Z,17.80
2022-09-13T04:03:56.346Z,17.30
2022-09-13T04:06:23.233Z,18.47
2022-09-13T04:08:49.889Z,21.27
2022-09-13T04:11:16.533Z,20.13
2022-09-13T04:13:43.054Z,21.67
2022-09-13T04:16:09.578Z,21.80
2022-09-13T04:18:36.256Z,23.07
2022-09-13T04:21:04.626Z,21.60
2022-09-13T04:23:31.473Z,22.77
2022-09-13T04:26:05.181Z,22.90
2022-09-13T04:28:31.764Z,23.67
2022-09-13T04:30:58.294Z,26.33
2022-09-13T04:33:25.166Z,24.10
2022-09-13T04:35:58.442Z,27.47
2022-09-13T04:38:24.965Z,26.40
2022-09-13T04:40:56.070Z,26.40
2022-09-13T04:43:23.652Z,24.80
2022-09-13T04:45:50.812Z,27.17
2022-09-13T04:48:17.418Z,26.40
2022-09-13T04:50:44.896Z,25.67
2022-09-13T04:53:11.854Z,27.23
2022-09-13T04:55:38.989Z,26.57
2022-09-13T04:58:05.574Z,25.50
2022-09-13T05:00:33.631Z,27.30
2022-09-13T05:03:00.451Z,28.23
2022-09-13T05:05:28.848Z,29.10
2022-09-13T05:07:55.644Z,26.70
2022-09-13T05:10:22.180Z,27.73
2022-09-13T05:12:49.093Z,27.47
2022-09-13T05:15:15.720Z,28.87
2022-09-13T05:17:42.230Z,27.83
2022-09-13T05:20:09.479Z,27.23
2022-09-13T05:22:35.984Z,28.60
2022-09-13T05:25:02.472Z,28.70
2022-09-13T05:27:28.998Z,28.47
2022-09-13T05:29:55.488Z,28.27
2022-09-13T05:32:22.018Z,28.60
2022-09-13T05:34:48.504Z,28.30
2022-09-13T05:37:15.031Z,29.20
2022-09-13T05:40:07.348Z,28.40
2022-09-13T05:42:28.046Z,27.30
2022-09-13T05:44:54.584Z,28.97
2022-09-13T05:47:21.317Z,27.33
2022-09-13T05:50:08.984Z,29.07
2022-09-13T05:52:34.303Z,27.97
2022-09-13T05:55:00.795Z,28.57
2022-09-13T05:57:27.294Z,29.20
2022-09-13T05:59:53.796Z,26.73
2022-09-13T06:02:20.352Z,26.40
2022-09-13T06:04:47.040Z,28.20
2022-09-13T06:07:13.565Z,27.07
2022-09-13T06:09:40.035Z,25.63
2022-09-13T06:12:06.855Z,25.57
2022-09-13T06:14:33.378Z,26.07
2022-09-13T06:16:59.857Z,26.67
2022-09-13T06:19:26.359Z,25.93
2022-09-13T06:21:52.860Z,26.57
2022-09-13T06:24:19.357Z,25.63
2022-09-13T06:26:45.839Z,23.23
2022-09-13T06:29:12.984Z,25.20
2022-09-13T06:31:43.753Z,24.00
2022-09-13T06:34:12.552Z,22.60
2022-09-13T06:36:39.087Z,23.23
2022-09-13T06:39:06.618Z,24.50
2022-09-13T06:41:33.601Z,22.03
2022-09-13T06:44:02.082Z,20.57
2022-09-13T06:46:30.631Z,22.10
2022-09-13T06:49:04.736Z,20.80
2022-09-13T06:51:32.612Z,19.47
2022-09-13T06:54:00.106Z,16.53
2022-09-13T06:56:29.875Z,14.77
2022-09-13T06:58:58.742Z,12.80
2022-09-13T07:01:34.311Z,12.73
2022-09-13T07:04:04.209Z,11.30
2022-09-13T07:06:36.695Z,10.57
2022-09-13T07:09:05.924Z,9.50
2022-09-13T07:11:36.305Z,10.43
2022-09-13T07:14:03.994Z,10.67
2022-09-13T07:16:32.483Z,9.67
2022-09-13T07:19:01.498Z,10.20
2022-09-13T07:21:29.371Z,8.07
2022-09-13T07:23:57.221Z,7.83
2022-09-13T07:26:24.975Z,6.93
2022-09-13T07:28:55.368Z,4.80
2022-09-13T07:31:28.947Z,4.80
2022-09-13T07:33:58.559Z,2.70
2022-09-13T07:36:26.717Z,2.27
2022-09-13T07:38:53.270Z,1.90
2022-09-13T07:41:22.116Z,1.53
2022-09-13T07:43:49.500Z,1.60
2022-09-13T07:46:21.888Z,2.23
2022-09-13T07:48:50.093Z,1.63
2022-09-13T07:51:20.798Z,1.77
2022-09-13T07:53:50.709Z,2.13
2022-09-13T07:56:23.468Z,2.10
2022-09-13T07:58:51.479Z,1.73
2022-09-13T08:01:26.494Z,2.10
2022-09-13T08:03:58.427Z,1.80
2022-09-13T08:06:26.833Z,2.23
2022-09-13T08:08:54.072Z,1.73
2022-09-13T08:11:26.061Z,1.80
2022-09-13T08:13:53.359Z,1.67
2022-09-13T08:16:21.664Z,1.80
2022-09-13T08:18:51.001Z,1.70
2022-09-13T08:21:18.040Z,1.40
2022-09-13T08:23:45.152Z,1.70
2022-09-13T08:26:11.896Z,1.50
2022-09-13T08:28:43.010Z,1.40
2022-09-13T08:31:12.267Z,1.93
2022-09-13T08:33:41.966Z,1.43
2022-09-13T08:36:10.833Z,1.37
2022-09-13T08:38:37.699Z,1.20
2022-09-13T08:41:25.892Z,1.53
2022-09-13T08:44:23.882Z,1.70
2022-09-13T08:46:51.261Z,1.37
2022-09-13T08:49:32.309Z,1.57
2022-09-13T08:52:29.933Z,1.50
2022-09-13T08:54:58.570Z,1.53
2022-09-13T08:58:09.930Z,1.30
2022-09-13T09:00:41.233Z,1.40
2022-09-13T09:03:26.776Z,1.67
2022-09-13T09:05:54.528Z,1.20
2022-09-13T09:08:31.345Z,1.40
2022-09-13T09:11:03.234Z,1.30
2022-09-13T09:13:48.230Z,1.57
2022-09-13T09:16:39.669Z,1.17
2022-09-13T09:19:22.876Z,1.60
2022-09-13T09:21:51.741Z,1.53
2022-09-13T09:24:23.390Z,1.10
2022-09-13T09:26:50.392Z,1.20
2022-09-13T09:29:26.171Z,1.23
2022-09-13T09:32:20.529Z,1.60
2022-09-13T09:35:07.596Z,1.50
2022-09-13T09:37:37.083Z,1.47
2022-09-13T09:40:11.281Z,1.40
2022-09-13T09:42:49.409Z,1.20
2022-09-13T09:45:32.244Z,1.30
2022-09-13T09:48:04.653Z,1.40
2022-09-13T09:50:36.483Z,1.20
2022-09-13T09:53:14.771Z,1.30
2022-09-13T09:55:53.403Z,1.20
2022-09-13T09:58:37.453Z,1.67
2022-09-13T10:01:09.549Z,1.20
2022-09-13T10:03:40.019Z,1.37
2022-09-13T10:06:14.487Z,1.40
2022-09-13T10:08:44.097Z,1.40
2022-09-13T10:11:10.903Z,1.27
2022-09-13T10:13:38.840Z,1.23
2022-09-13T10:16:21.611Z,1.43
2022-09-13T10:18:48.511Z,1.47
2022-09-13T10:21:18.034Z,1.30
2022-09-13T10:23:47.149Z,1.13
2022-09-13T10:26:18.031Z,1.53
2022-09-13T10:28:59.854Z,3.50
2022-09-13T10:31:34.445Z,0.90
2022-09-13T10:34:04.610Z,1.13
2022-09-13T10:36:52.612Z,1.47
2022-09-13T10:39:22.423Z,1.23
2022-09-13T10:41:53.745Z,1.33
2022-09-13T10:44:31.864Z,1.10
2022-09-13T10:47:02.014Z,1.10
2022-09-13T10:49:36.290Z,1.60
2022-09-13T10:52:33.429Z,1.40
2022-09-13T10:55:21.284Z,1.80
2022-09-13T10:57:50.063Z,2.10
2022-09-13T11:00:22.898Z,1.20
2022-09-13T11:03:05.856Z,1.40
2022-09-13T11:05:54.318Z,1.20
2022-09-13T11:08:36.348Z,1.20
2022-09-13T11:11:30.836Z,1.13
2022-09-13T11:14:21.852Z,1.87
2022-09-13T11:17:07.186Z,1.30
2022-09-13T11:19:43.666Z,1.30
2022-09-13T11:22:33.419Z,1.37
2022-09-13T11:25:05.340Z,1.20
2022-09-13T11:28:03.435Z,1.60
2022-09-13T11:30:35.852Z,1.37
2022-09-13T11:33:27.019Z,1.40
2022-09-13T11:36:15.293Z,1.93
2022-09-13T11:38:56.894Z,1.70
2022-09-13T11:41:46.602Z,1.50
2022-09-13T11:44:37.221Z,2.20
2022-09-13T11:47:15.325Z,1.10
2022-09-13T11:50:03.137Z,1.47
2022-09-13T11:52:39.099Z,1.80
2022-09-13T11:55:16.870Z,1.70
2022-09-13T11:57:53.185Z,1.63
2022-09-13T12:00:27.903Z,1.70
2022-09-13T12:03:26.334Z,2.17
2022-09-13T12:06:01.481Z,1.70
2022-09-13T12:08:42.557Z,1.77
2022-09-13T12:11:16.082Z,1.80
2022-09-13T12:14:00.811Z,1.83
2022-09-13T12:16:39.363Z,1.50
2022-09-13T12:19:15.759Z,1.57
2022-09-13T12:21:44.430Z,1.40
2022-09-13T12:24:21.735Z,1.53
2022-09-13T12:26:57.132Z,1.50
2022-09-13T12:29:54.199Z,1.63
2022-09-13T12:32:23.712Z,1.50
2022-09-13T12:34:57.659Z,1.63
2022-09-13T12:38:02.008Z,1.60
2022-09-13T12:40:54.843Z,1.33
2022-09-13T12:43:55.319Z,1.30
2022-09-13T12:46:27.960Z,1.60
2022-09-13T12:49:03.549Z,1.40
2022-09-13T12:51:54.317Z,1.67
2022-09-13T12:54:39.563Z,1.40
2022-09-13T12:57:28.243Z,1.40
2022-09-13T13:00:20.998Z,1.20
2022-09-13T13:03:11.899Z,1.37
2022-09-13T13:05:45.895Z,1.60
2022-09-13T13:08:21.530Z,1.47
2022-09-13T13:11:06.709Z,1.97
2022-09-13T13:13:43.155Z,1.70
2022-09-13T13:16:23.632Z,1.37
2022-09-13T13:18:58.336Z,1.70
2022-09-13T13:21:39.116Z,1.70
2022-09-13T13:24:18.768Z,1.63
2022-09-13T13:26:56.566Z,1.60
2022-09-13T13:29:30.147Z,1.10
2022-09-13T13:32:08.399Z,1.80
2022-09-13T13:34:50.229Z,1.73
2022-09-13T13:37:19.431Z,1.63
2022-09-13T13:39:47.403Z,1.77
2022-09-13T13:42:27.943Z,1.63
2022-09-13T13:44:54.418Z,1.70
2022-09-13T13:47:20.849Z,1.70
2022-09-13T13:49:52.693Z,1.70
2022-09-13T13:52:22.477Z,2.17
2022-09-13T13:54:55.729Z,1.60
2022-09-13T13:57:38.891Z,1.60
2022-09-13T14:00:15.741Z,1.80
2022-09-13T14:02:53.511Z,1.70
2022-09-13T14:05:41.793Z,1.73
2022-09-13T14:08:32.741Z,1.80
2022-09-13T14:11:11.129Z,2.00
2022-09-13T14:14:03.315Z,1.57
2022-09-13T14:17:14.145Z,1.90
2022-09-13T14:19:50.182Z,2.20
2022-09-13T14:22:19.135Z,1.93
2022-09-13T14:24:51.256Z,2.07
2022-09-13T14:27:20.197Z,1.50
2022-09-13T14:29:49.388Z,1.80
2022-09-13T14:32:23.814Z,1.70
2022-09-13T14:34:59.630Z,1.73
2022-09-13T14:37:32.792Z,2.30
2022-09-13T14:40:08.357Z,1.87
2022-09-13T14:42:43.671Z,1.47
2022-09-13T14:45:16.700Z,2.23
2022-09-13T14:47:47.619Z,2.13
2022-09-13T14:50:22.733Z,1.83
2022-09-13T14:52:53.726Z,1.93
2022-09-13T14:55:28.706Z,1.63
2022-09-13T14:58:04.209Z,2.03
2022-09-13T15:00:44.012Z,2.07
2022-09-13T15:03:16.615Z,1.67
2022-09-13T15:05:51.979Z,1.50
2022-09-13T15:08:33.513Z,1.83
2022-09-13T15:11:12.725Z,1.90
2022-09-13T15:13:42.830Z,2.20
2022-09-13T15:16:29.681Z,1.60
2022-09-13T15:19:26.924Z,2.13
2022-09-13T15:22:03.140Z,1.67
2022-09-13T15:24:33.280Z,2.00
2022-09-13T15:27:07.496Z,1.90
2022-09-13T15:29:37.485Z,1.33
2022-09-13T15:32:06.623Z,1.43
2022-09-13T15:34:46.624Z,1.50
2022-09-13T15:37:18.770Z,1.17
2022-09-13T15:39:52.870Z,1.37
2022-09-13T15:42:19.582Z,1.20
2022-09-13T15:44:46.886Z,1.70
2022-09-13T15:47:18.290Z,1.37
2022-09-13T15:49:50.999Z,1.23
2022-09-13T15:52:22.618Z,1.20
2022-09-13T15:54:50.635Z,1.40
2022-09-13T15:57:22.551Z,1.00
2022-09-13T15:59:49.443Z,0.93
2022-09-13T16:02:23.172Z,1.13
2022-09-13T16:04:50.297Z,1.00
2022-09-13T16:07:17.871Z,1.00
2022-09-13T16:09:45.495Z,1.23
2022-09-13T16:12:12.048Z,1.20
2022-09-13T16:14:39.277Z,1.13
2022-09-13T16:17:23.811Z,1.00
2022-09-13T16:19:51.278Z,1.27
2022-09-13T16:22:18.071Z,1.13
2022-09-13T16:24:44.606Z,1.07
2022-09-13T16:27:16.703Z,1.47
2022-09-13T16:29:44.599Z,1.40
2022-09-13T16:32:11.989Z,1.10
2022-09-13T16:34:38.559Z,1.60
2022-09-13T16:37:06.020Z,1.53
2022-09-13T16:39:32.829Z,1.43
2022-09-13T16:42:00.860Z,1.43
2022-09-13T16:44:27.645Z,1.33
2022-09-13T16:46:54.181Z,1.63
2022-09-13T16:49:20.788Z,1.23
2022-09-13T16:51:47.293Z,1.07
2022-09-13T16:54:13.964Z,1.37
2022-09-13T16:56:40.468Z,1.50
2022-09-13T16:59:06.999Z,1.27
2022-09-13T17:01:33.592Z,1.33
2022-09-13T17:04:00.513Z,1.20
2022-09-13T17:06:27.852Z,1.37
2022-09-13T17:08:57.073Z,1.30
2022-09-13T17:11:27.162Z,1.70
2022-09-13T17:13:56.370Z,2.10
2022-09-13T17:16:28.752Z,1.63
2022-09-13T17:18:58.215Z,1.30
2022-09-13T17:21:25.840Z,1.50
2022-09-13T17:23:53.099Z,1.40
2022-09-13T17:26:20.100Z,1.30
2022-09-13T17:28:46.672Z,1.60
2022-09-13T17:31:13.307Z,1.60
2022-09-13T17:33:39.873Z,1.20
2022-09-13T17:36:08.708Z,1.20
2022-09-13T17:38:36.499Z,1.43
2022-09-13T17:41:04.400Z,1.50
2022-09-13T17:43:31.070Z,1.40
2022-09-13T17:45:57.864Z,1.67
2022-09-13T17:48:24.414Z,1.20
2022-09-13T17:50:50.963Z,1.47
2022-09-13T17:53:17.471Z,1.40
2022-09-13T17:55:49.049Z,1.50
2022-09-13T17:58:16.156Z,1.37
2022-09-13T18:00:42.764Z,1.10
2022-09-13T18:03:09.587Z,1.20
2022-09-13T18:05:36.486Z,1.60
2022-09-13T18:08:03.281Z,1.20
2022-09-13T18:10:58.069Z,1.37
2022-09-13T18:13:18.437Z,1.10
2022-09-13T18:15:48.370Z,1.37
2022-09-13T18:18:16.497Z,1.10
2022-09-13T18:20:47.343Z,1.40
2022-09-13T18:23:14.120Z,1.03
2022-09-13T18:25:40.859Z,1.20
2022-09-13T18:28:07.418Z,1.07
2022-09-13T18:30:34.031Z,1.00
2022-09-13T18:33:00.825Z,1.00
2022-09-13T18:35:28.988Z,1.03
2022-09-13T18:37:55.750Z,1.17
2022-09-13T18:40:26.008Z,1.37
2022-09-13T18:42:52.633Z,1.10
2022-09-13T18:45:24.080Z,1.17
2022-09-13T18:47:50.587Z,0.97
2022-09-13T18:50:20.089Z,1.23
2022-09-13T18:52:46.965Z,1.00
2022-09-13T18:55:14.403Z,1.30
2022-09-13T18:57:41.177Z,1.03
2022-09-13T19:00:09.915Z,1.10
2022-09-13T19:02:51.975Z,1.50
2022-09-13T19:05:29.443Z,1.40
2022-09-13T19:07:58.001Z,1.27
2022-09-13T19:10:26.069Z,0.83
2022-09-13T19:12:57.156Z,1.63
2022-09-13T19:15:27.478Z,1.23
2022-09-13T19:17:57.798Z,1.00
2022-09-13T19:20:30.498Z,1.10
2022-09-13T19:22:58.967Z,1.40
2022-09-13T19:25:30.468Z,0.70
2022-09-13T19:27:57.884Z,1.03
2022-09-13T19:30:25.224Z,0.80
2022-09-13T19:32:55.774Z,1.00
2022-09-13T19:35:24.036Z,1.30
2022-09-13T19:37:50.803Z,1.10
2022-09-13T19:40:20.107Z,0.97
2022-09-13T19:42:47.047Z,1.20
2022-09-13T19:45:14.003Z,1.00
2022-09-13T19:48:25.759Z,1.17
2022-09-13T19:50:27.675Z,1.10
2022-09-13T19:52:54.430Z,1.53
2022-09-13T19:55:21.010Z,1.30
2022-09-13T19:57:47.516Z,1.10
2022-09-13T20:00:14.621Z,1.07
2022-09-13T20:02:41.178Z,1.00
2022-09-13T20:05:08.108Z,1.10
2022-09-13T20:07:35.945Z,1.20
2022-09-13T20:10:02.485Z,1.00
2022-09-13T20:12:28.952Z,1.00
2022-09-13T20:14:55.673Z,1.50
2022-09-13T20:17:22.176Z,1.30
2022-09-13T20:19:50.326Z,1.37
2022-09-13T20:22:17.073Z,1.00
2022-09-13T20:24:43.629Z,1.10
2022-09-13T20:27:10.445Z,1.10
2022-09-13T20:29:37.098Z,0.93
2022-09-13T20:32:04.074Z,0.87
2022-09-13T20:34:35.213Z,1.20
2022-09-13T20:37:01.857Z,0.90
2022-09-13T20:39:30.167Z,1.30
2022-09-13T20:41:56.691Z,0.97
2022-09-13T20:44:23.696Z,1.30
2022-09-13T20:46:50.198Z,1.30
2022-09-13T20:49:17.150Z,1.07
2022-09-13T20:51:46.792Z,1.13
2022-09-13T20:54:13.595Z,1.30
2022-09-13T20:56:40.444Z,1.33
2022-09-13T20:59:07.025Z,1.30
2022-09-13T21:01:34.388Z,1.57
2022-09-13T21:04:01.442Z,1.47
2022-09-13T21:06:30.454Z,1.23
2022-09-13T21:09:00.177Z,1.27
2022-09-13T21:11:34.231Z,1.40
2022-09-13T21:14:06.213Z,1.33
2022-09-13T21:16:39.358Z,1.33
2022-09-13T21:19:07.108Z,0.90
2022-09-13T21:21:36.293Z,1.30
2022-09-13T21:24:04.958Z,1.20
2022-09-13T21:26:32.508Z,1.20
2022-09-13T21:29:00.623Z,1.30
2022-09-13T21:31:32.460Z,1.00
2022-09-13T21:34:05.064Z,1.13
2022-09-13T21:36:34.698Z,1.53
2022-09-13T21:39:02.449Z,1.20
2022-09-13T21:41:30.478Z,1.23
2022-09-13T21:43:57.184Z,1.13
2022-09-13T21:46:29.127Z,1.20
2022-09-13T21:48:58.541Z,1.70
2022-09-13T21:51:30.938Z,1.43
2022-09-13T21:53:59.452Z,1.23
2022-09-13T21:56:28.490Z,1.90
2022-09-13T21:59:01.057Z,1.70
2022-09-13T22:01:36.324Z,2.00
2022-09-13T22:04:03.020Z,1.53
2022-09-13T22:06:35.287Z,2.03
2022-09-13T22:09:05.492Z,2.20
2022-09-13T22:11:37.120Z,1.97
2022-09-13T22:14:03.887Z,1.83
2022-09-13T22:16:35.352Z,2.33
2022-09-13T22:19:11.484Z,2.23
2022-09-13T22:21:41.148Z,2.00
2022-09-13T22:24:09.236Z,1.80
2022-09-13T22:26:40.962Z,2.00
2022-09-13T22:29:09.780Z,1.73
2022-09-13T22:31:41.411Z,2.47
2022-09-13T22:34:14.322Z,1.97
2022-09-13T22:36:43.520Z,2.00
2022-09-13T22:39:12.980Z,2.00
2022-09-13T22:41:39.958Z,1.77
2022-09-13T22:44:06.655Z,1.77
2022-09-13T22:46:36.128Z,1.63
2022-09-13T22:49:04.161Z,1.53
2022-09-13T22:51:31.437Z,2.27
2022-09-13T22:53:58.124Z,2.00
2022-09-13T22:56:28.503Z,1.67
2022-09-13T22:58:57.681Z,1.83
2022-09-13T23:01:25.176Z,1.70
2022-09-13T23:03:53.109Z,2.10
2022-09-13T23:06:21.464Z,1.93
2022-09-13T23:08:49.744Z,2.10
2022-09-13T23:11:21.292Z,1.70
2022-09-13T23:13:49.759Z,1.93
2022-09-13T23:16:17.561Z,1.70
2022-09-13T23:18:44.208Z,1.97
2022-09-13T23:21:13.345Z,2.30
2022-09-13T23:23:40.148Z,2.10
2022-09-13T23:26:10.039Z,2.10
2022-09-13T23:28:38.083Z,1.97
2022-09-13T23:31:15.784Z,1.80
2022-09-13T23:33:48.464Z,1.90
2022-09-13T23:36:20.927Z,2.10
2022-09-13T23:38:50.831Z,1.97
2022-09-13T23:41:19.066Z,2.07
2022-09-13T23:43:46.311Z,2.27
2022-09-13T23:46:13.092Z,2.10
2022-09-13T23:48:42.899Z,1.83
2022-09-13T23:51:13.002Z,2.50
2022-09-13T23:53:39.982Z,2.03
2022-09-13T23:56:08.529Z,2.03
2022-09-13T23:58:36.993Z,2.50
